Horley, United Kingdom
Current Conditions -  °F | °C
As of 5:20 AM on Wednesday 26 Nov 2014 (Local Time) from EGKK Reporting Station
Haze Haze  
Wind Chill: 45°   Ceiling: 600
Heat Index: 45°   Visibility: 2.5mi
Dew Point: 45°   Wind: 3mph
Humidity: 100%   Direction: 60°ENE
Pressure: 29.88"   Gusts: NA
Location:  51.17°N, 0.18°W
Report Text: EGKK 260520Z 06003KT 4000 BR FEW004 OVC006 07/07 Q1012
Loading
Personal Weather Stations






























Interactive Weather Map New forecast layout! Learn more

10-Day Weather Forecast

Advertisements
Track Severe Weather on mobile